Time;durP1;ratioP1;P1;durP2;ratioP2;P2;SDS_P1;SDS_P2;PMS_P1;PMS_P2;Temp;Humidity;BMP_temperature;BMP_pressure;BME280_temperature;BME280_humidity;BME280_pressure;Samples;Min_cycle;Max_cycle;Signal;HPM_P1;HPM_P2
2022/06/22 00:00:35;;;;;;;1.20;1.10;;;27.80;69.80;;;;;;5074622;28;21668;-64
2022/06/22 00:03:10;;;;;;;1.50;1.40;;;27.90;69.00;;;;;;5080553;28;20455;-64
2022/06/22 00:05:47;;;;;;;0.67;0.67;;;28.00;67.50;;;;;;5074444;28;20927;-64
2022/06/22 00:08:20;;;;;;;0.70;0.70;;;27.90;67.70;;;;;;5078301;28;20510;-64
2022/06/22 00:10:54;;;;;;;1.60;0.80;;;28.00;67.30;;;;;;5079265;28;20468;-63
2022/06/22 00:13:27;;;;;;;1.00;0.90;;;27.90;67.10;;;;;;5080184;28;20467;-64
2022/06/22 00:16:02;;;;;;;0.87;0.87;;;27.80;67.20;;;;;;5073499;28;20942;-64
2022/06/22 00:18:39;;;;;;;0.70;0.70;;;27.80;68.00;;;;;;5079780;28;20489;-63
2022/06/22 00:21:20;;;;;;;1.07;0.70;;;27.80;67.40;;;;;;5079976;28;20508;-64
2022/06/22 00:23:54;;;;;;;0.70;0.70;;;27.60;65.70;;;;;;5083358;28;20471;-64
2022/06/22 00:26:34;;;;;;;0.90;0.80;;;27.60;65.90;;;;;;5080418;28;20480;-63
2022/06/22 00:29:23;;;;;;;1.07;1.00;;;27.50;66.20;;;;;;5078465;28;20560;-62
2022/06/22 00:32:14;;;;;;;1.00;0.80;;;27.50;68.40;;;;;;5071782;28;20460;-63
2022/06/22 00:34:47;;;;;;;0.83;0.83;;;27.50;68.70;;;;;;5078050;28;20468;-62
2022/06/22 00:37:21;;;;;;;0.80;0.80;;;27.50;70.80;;;;;;5080591;28;20470;-62
2022/06/22 00:39:55;;;;;;;0.97;0.90;;;27.50;72.00;;;;;;5081521;28;20520;-62
2022/06/22 00:42:32;;;;;;;0.87;0.80;;;27.50;73.80;;;;;;5080847;28;20458;-62
2022/06/22 00:45:06;;;;;;;0.93;0.90;;;27.60;73.50;;;;;;5080888;28;20958;-62
2022/06/22 00:47:39;;;;;;;0.83;0.70;;;27.60;73.70;;;;;;5082054;28;20784;-63
2022/06/22 00:50:16;;;;;;;0.90;0.90;;;27.50;75.70;;;;;;5079063;28;20954;-64
2022/06/22 00:52:53;;;;;;;1.20;0.80;;;27.60;76.90;;;;;;5081587;28;20516;-64
2022/06/22 00:55:36;;;;;;;0.93;0.93;;;27.50;76.80;;;;;;5075384;28;20463;-64
2022/06/22 00:58:16;;;;;;;0.60;0.60;;;27.40;78.30;;;;;;5081382;28;20452;-62
2022/06/22 01:00:57;;;;;;;0.70;0.67;;;27.40;78.20;;;;;;5085831;28;20530;-64
2022/06/22 01:03:36;;;;;;;0.57;0.57;;;27.30;78.90;;;;;;5080579;28;20459;-66
2022/06/22 01:06:18;;;;;;;1.17;1.07;;;27.30;75.90;;;;;;5078583;28;20546;-64
2022/06/22 01:08:54;;;;;;;0.90;0.90;;;27.30;77.50;;;;;;5081666;28;20682;-63
2022/06/22 01:14:20;;;;;;;0.63;0.63;;;27.10;77.30;;;;;;5080157;28;20456;-63
2022/06/22 01:16:53;;;;;;;0.80;0.70;;;27.00;77.20;;;;;;5080956;28;20812;-63
2022/06/22 01:19:40;;;;;;;1.43;1.33;;;27.00;78.50;;;;;;5081042;28;20491;-63
2022/06/22 01:22:26;;;;;;;0.83;0.70;;;27.00;79.80;;;;;;5084189;28;20484;-62
2022/06/22 01:25:08;;;;;;;0.83;0.70;;;26.90;79.90;;;;;;5079436;28;20488;-63
2022/06/22 01:27:43;;;;;;;1.47;1.27;;;26.90;80.50;;;;;;5083558;28;20987;-63
2022/06/22 01:30:23;;;;;;;0.90;0.90;;;26.90;80.30;;;;;;5074172;28;20445;-63
2022/06/22 01:32:55;;;;;;;1.10;1.00;;;26.70;80.60;;;;;;5078880;28;20465;-64
2022/06/22 01:35:28;;;;;;;0.70;0.70;;;26.70;80.50;;;;;;5072417;28;20472;-61
2022/06/22 01:37:59;;;;;;;1.00;0.70;;;26.70;80.40;;;;;;5084798;28;20462;-62
2022/06/22 01:40:40;;;;;;;1.07;0.97;;;26.60;82.00;;;;;;5080637;28;20505;-62
2022/06/22 01:43:21;;;;;;;0.70;0.70;;;26.50;82.60;;;;;;5084555;28;20458;-63
2022/06/22 01:45:58;;;;;;;0.70;0.63;;;26.40;82.90;;;;;;5084526;28;20464;-62
2022/06/22 01:48:34;;;;;;;0.80;0.80;;;26.30;83.60;;;;;;5083694;28;20481;-62
2022/06/22 01:51:12;;;;;;;1.40;1.30;;;26.30;85.80;;;;;;5077116;28;20470;-63
2022/06/22 01:53:49;;;;;;;0.90;0.90;;;26.30;85.10;;;;;;5081742;28;20519;-63
2022/06/22 01:56:26;;;;;;;1.17;0.93;;;26.30;85.20;;;;;;5082942;28;20477;-62
2022/06/22 01:59:21;;;;;;;1.37;1.20;;;26.30;85.00;;;;;;5083957;28;20512;-62
2022/06/22 02:01:57;;;;;;;0.90;0.70;;;26.30;86.10;;;;;;5082836;28;20466;-63
2022/06/22 02:04:35;;;;;;;0.90;0.90;;;26.20;86.50;;;;;;5080079;28;20930;-66
2022/06/22 02:10:13;;;;;;;0.70;0.70;;;26.10;87.30;;;;;;5082118;28;20477;-65
2022/06/22 02:12:49;;;;;;;1.07;0.97;;;26.00;87.70;;;;;;5080056;28;20472;-65
2022/06/22 02:15:29;;;;;;;1.13;1.07;;;26.00;88.20;;;;;;5084435;28;20464;-66
2022/06/22 02:18:01;;;;;;;0.70;0.70;;;26.00;88.50;;;;;;5083432;28;20458;-64
2022/06/22 02:20:36;;;;;;;0.60;0.60;;;25.90;88.10;;;;;;5079393;28;20582;-65
2022/06/22 02:23:20;;;;;;;0.60;0.60;;;25.80;88.80;;;;;;5080228;28;20476;-66
2022/06/22 02:26:15;;;;;;;0.83;0.83;;;25.80;88.50;;;;;;5081858;28;20474;-66
2022/06/22 02:28:46;;;;;;;0.80;0.80;;;25.80;88.80;;;;;;5083728;28;20462;-66
2022/06/22 02:31:22;;;;;;;0.70;0.70;;;25.70;88.60;;;;;;5078814;28;20468;-65
2022/06/22 02:33:57;;;;;;;0.67;0.67;;;25.60;90.10;;;;;;5083750;28;20458;-65
2022/06/22 02:36:30;;;;;;;0.70;0.70;;;25.50;90.50;;;;;;5082313;28;20576;-65
2022/06/22 02:39:05;;;;;;;0.80;0.70;;;25.50;90.30;;;;;;5082547;28;20473;-66
2022/06/22 02:44:33;;;;;;;2.50;2.30;;;25.30;90.70;;;;;;5057954;28;20473;-66
2022/06/22 02:47:23;;;;;;;3.07;2.77;;;25.30;90.60;;;;;;5082280;28;20542;-66
2022/06/22 02:50:04;;;;;;;0.93;0.90;;;25.30;90.10;;;;;;5082610;28;20523;-64
2022/06/22 02:52:40;;;;;;;1.17;1.17;;;25.20;90.60;;;;;;5066605;28;20477;-65
2022/06/22 02:55:13;;;;;;;1.57;1.00;;;25.20;90.60;;;;;;5082197;28;20473;-65
2022/06/22 02:57:48;;;;;;;0.90;0.90;;;25.10;91.30;;;;;;5082781;28;20466;-65
2022/06/22 03:00:21;;;;;;;1.73;0.80;;;25.00;91.90;;;;;;5076322;28;20487;-65
2022/06/22 03:02:59;;;;;;;0.80;0.80;;;24.90;91.50;;;;;;5078616;28;20803;-66
2022/06/22 03:05:30;;;;;;;0.70;0.70;;;24.90;92.10;;;;;;5073820;28;20468;-66
2022/06/22 03:08:03;;;;;;;0.60;0.50;;;24.80;92.10;;;;;;5082584;28;20544;-67
2022/06/22 03:10:38;;;;;;;0.80;0.80;;;24.70;92.70;;;;;;5081691;28;20563;-65
2022/06/22 03:13:15;;;;;;;0.73;0.70;;;24.60;92.60;;;;;;5081813;28;20466;-64
2022/06/22 03:15:48;;;;;;;0.60;0.60;;;24.60;92.80;;;;;;5081938;28;20466;-66
2022/06/22 03:18:24;;;;;;;0.70;0.70;;;24.50;93.60;;;;;;5081514;28;20467;-66
2022/06/22 03:20:57;;;;;;;0.70;0.70;;;24.50;93.60;;;;;;5079177;28;20502;-65
2022/06/22 03:23:36;;;;;;;1.70;1.40;;;24.40;93.70;;;;;;5083325;28;20452;-65
2022/06/22 03:26:12;;;;;;;0.80;0.70;;;24.40;94.10;;;;;;5080750;28;20936;-66
2022/06/22 03:28:48;;;;;;;1.20;0.70;;;24.30;94.10;;;;;;5080351;28;20473;-66
2022/06/22 03:31:23;;;;;;;0.80;0.80;;;24.40;93.40;;;;;;5078878;28;20455;-66
2022/06/22 03:34:03;;;;;;;1.03;0.97;;;24.30;93.30;;;;;;5076934;28;20459;-67
2022/06/22 03:36:37;;;;;;;0.87;0.77;;;24.20;93.40;;;;;;5070830;28;20555;-67
2022/06/22 03:39:10;;;;;;;1.33;0.77;;;24.20;93.60;;;;;;5075985;28;20443;-67
2022/06/22 03:41:47;;;;;;;1.13;1.00;;;24.10;93.80;;;;;;5080986;28;20477;-66
2022/06/22 03:44:23;;;;;;;1.53;1.20;;;24.10;94.30;;;;;;5080814;28;20471;-66
2022/06/22 03:46:58;;;;;;;0.97;0.97;;;24.00;94.60;;;;;;5081334;28;20458;-67
2022/06/22 03:49:38;;;;;;;1.00;0.90;;;23.80;94.50;;;;;;5082153;28;20469;-66
2022/06/22 03:52:16;;;;;;;0.70;0.63;;;23.80;94.40;;;;;;5080132;28;20474;-66
2022/06/22 03:54:51;;;;;;;0.67;0.57;;;23.70;94.90;;;;;;5081110;28;20526;-67
2022/06/22 03:57:27;;;;;;;0.70;0.70;;;23.80;94.70;;;;;;5079871;28;20486;-67
2022/06/22 03:59:59;;;;;;;1.10;0.70;;;23.70;95.10;;;;;;5082224;28;20578;-66
2022/06/22 04:02:30;;;;;;;0.60;0.50;;;23.60;95.30;;;;;;5081799;28;20458;-66
2022/06/22 04:05:04;;;;;;;0.70;0.70;;;23.50;95.50;;;;;;5081858;28;20885;-66
2022/06/22 04:07:37;;;;;;;0.90;0.70;;;23.40;95.30;;;;;;5080732;28;20468;-66
2022/06/22 04:10:25;;;;;;;0.73;0.73;;;23.30;95.70;;;;;;5080969;28;20781;-67
2022/06/22 04:13:07;;;;;;;0.77;0.70;;;23.30;95.80;;;;;;5081008;28;20479;-65
2022/06/22 04:15:42;;;;;;;0.90;0.73;;;23.20;95.80;;;;;;5078729;28;20445;-63
2022/06/22 04:18:18;;;;;;;1.00;0.80;;;23.10;96.40;;;;;;5080070;28;20991;-65
2022/06/22 04:20:54;;;;;;;1.80;1.00;;;23.00;96.70;;;;;;5075291;28;20505;-65
2022/06/22 04:23:33;;;;;;;0.90;0.80;;;23.00;96.60;;;;;;5076358;28;20498;-65
2022/06/22 04:26:11;;;;;;;1.90;0.97;;;22.90;96.50;;;;;;5074376;28;20456;-65
2022/06/22 04:28:47;;;;;;;0.90;0.80;;;22.90;96.40;;;;;;5080301;28;20477;-66
2022/06/22 04:31:24;;;;;;;0.90;0.90;;;22.80;96.70;;;;;;5076003;28;20481;-66
2022/06/22 04:33:58;;;;;;;0.50;0.43;;;22.70;97.10;;;;;;5081316;28;20455;-65
2022/06/22 04:36:37;;;;;;;0.70;0.70;;;22.70;97.60;;;;;;5074377;28;20442;-65
2022/06/22 04:39:17;;;;;;;1.10;0.80;;;22.70;97.30;;;;;;5081976;28;21244;-65
2022/06/22 04:41:49;;;;;;;1.00;0.77;;;22.50;97.80;;;;;;5078484;28;20494;-66
2022/06/22 04:44:22;;;;;;;0.90;0.70;;;22.40;98.00;;;;;;5082235;28;20473;-65
2022/06/22 04:46:55;;;;;;;0.83;0.70;;;22.40;98.10;;;;;;5081425;28;20459;-65
2022/06/22 04:49:33;;;;;;;0.63;0.60;;;22.30;98.60;;;;;;5080813;28;20910;-65
2022/06/22 04:52:12;;;;;;;0.70;0.70;;;22.20;99.20;;;;;;5078607;28;20456;-65
2022/06/22 04:54:46;;;;;;;0.90;0.70;;;22.10;99.40;;;;;;5082427;28;20465;-65
2022/06/22 04:57:21;;;;;;;0.70;0.60;;;22.00;99.90;;;;;;5087364;28;20570;-64
2022/06/22 04:59:54;;;;;;;0.63;0.63;;;22.00;99.90;;;;;;5087907;28;20460;-64
2022/06/22 05:02:28;;;;;;;1.23;1.13;;;22.00;99.90;;;;;;5082289;28;21210;-64
2022/06/22 05:05:03;;;;;;;0.60;0.60;;;21.90;99.90;;;;;;5088205;28;20542;-64
2022/06/22 05:07:47;;;;;;;0.80;0.70;;;21.80;99.90;;;;;;5087280;28;20451;-64
2022/06/22 05:10:28;;;;;;;0.90;0.77;;;21.70;99.90;;;;;;5087719;28;20537;-65
2022/06/22 05:13:03;;;;;;;0.97;0.77;;;21.60;99.90;;;;;;5088175;28;20447;-66
2022/06/22 05:15:37;;;;;;;0.63;0.60;;;21.50;99.90;;;;;;5087982;28;20464;-65
2022/06/22 05:18:14;;;;;;;0.80;0.70;;;21.40;99.90;;;;;;5070000;28;20451;-65
2022/06/22 05:20:53;;;;;;;1.23;0.90;;;21.30;99.90;;;;;;5087463;28;20483;-65
2022/06/22 05:23:28;;;;;;;1.13;0.80;;;21.30;99.90;;;;;;5088202;28;20469;-65
2022/06/22 05:26:03;;;;;;;0.87;0.80;;;21.40;99.90;;;;;;5087135;28;20462;-64
2022/06/22 05:28:37;;;;;;;1.20;1.10;;;21.30;99.90;;;;;;5088179;28;20454;-65
2022/06/22 05:31:12;;;;;;;1.37;0.70;;;21.30;99.90;;;;;;5088297;28;20912;-65
2022/06/22 05:33:49;;;;;;;0.90;0.90;;;21.30;99.90;;;;;;5087688;28;20446;-65
2022/06/22 05:36:25;;;;;;;1.80;0.90;;;21.20;99.90;;;;;;5087861;28;20816;-65
2022/06/22 05:39:01;;;;;;;1.07;0.60;;;21.20;99.90;;;;;;5088052;28;20446;-66
2022/06/22 05:41:35;;;;;;;1.33;0.90;;;21.20;99.90;;;;;;5087132;28;20514;-66
2022/06/22 05:44:11;;;;;;;0.70;0.60;;;21.10;99.90;;;;;;5087648;28;20451;-66
2022/06/22 05:46:45;;;;;;;0.60;0.60;;;21.00;99.90;;;;;;5088239;28;20453;-65
2022/06/22 05:49:18;;;;;;;0.90;0.87;;;21.00;99.90;;;;;;5087801;28;20437;-65
2022/06/22 05:51:56;;;;;;;0.73;0.63;;;20.90;99.90;;;;;;5087396;28;20558;-65
2022/06/22 05:54:40;;;;;;;0.60;0.60;;;20.90;99.90;;;;;;5086777;28;20443;-65
2022/06/22 05:57:23;;;;;;;1.00;0.90;;;20.90;99.90;;;;;;5086917;28;20455;-64
2022/06/22 05:59:59;;;;;;;0.60;0.60;;;20.80;99.90;;;;;;5087836;28;20451;-66
2022/06/22 06:02:38;;;;;;;0.80;0.80;;;20.70;99.90;;;;;;5087681;28;20559;-65
2022/06/22 06:05:15;;;;;;;2.63;0.90;;;20.70;99.90;;;;;;5087852;28;20425;-65
2022/06/22 06:07:48;;;;;;;0.57;0.57;;;20.60;99.90;;;;;;5083274;28;20452;-65
2022/06/22 06:10:24;;;;;;;1.00;0.90;;;20.60;99.90;;;;;;5083812;28;20469;-65
2022/06/22 06:12:59;;;;;;;1.17;1.00;;;20.50;99.90;;;;;;5083455;28;20473;-65
2022/06/22 06:15:34;;;;;;;0.70;0.60;;;20.40;99.90;;;;;;5083592;28;20497;-65
2022/06/22 06:18:08;;;;;;;0.70;0.70;;;20.30;99.90;;;;;;5084530;28;20455;-65
2022/06/22 06:20:42;;;;;;;0.77;0.77;;;20.20;99.90;;;;;;5067230;28;20570;-65
2022/06/22 06:23:37;;;;;;;1.03;0.87;;;20.10;99.90;;;;;;5083851;28;20535;-65
2022/06/22 06:29:24;;;;;;;1.40;1.20;;;20.00;99.90;;;;;;5084531;28;20443;-65
2022/06/22 06:32:22;;;;;;;1.47;0.93;;;20.00;99.90;;;;;;5075801;28;20451;-65
2022/06/22 06:34:58;;;;;;;1.13;1.00;;;19.90;99.90;;;;;;5073530;28;20455;-65
2022/06/22 06:37:46;;;;;;;0.80;0.80;;;19.80;99.90;;;;;;5083649;28;20455;-65
2022/06/22 06:40:22;;;;;;;1.03;0.80;;;19.80;99.90;;;;;;5076560;28;20454;-65
2022/06/22 06:43:06;;;;;;;1.10;1.00;;;19.80;99.90;;;;;;5082923;28;20497;-65
2022/06/22 06:45:37;;;;;;;0.80;0.80;;;19.80;99.90;;;;;;5082924;28;20516;-66
2022/06/22 06:48:25;;;;;;;1.40;1.30;;;19.80;99.90;;;;;;5082602;28;20532;-65
2022/06/22 06:51:01;;;;;;;0.80;0.80;;;19.70;99.90;;;;;;5061487;28;20462;-66
2022/06/22 06:53:39;;;;;;;0.80;0.80;;;19.60;99.90;;;;;;5080841;28;20493;-66
2022/06/22 06:56:17;;;;;;;1.13;1.00;;;19.60;99.90;;;;;;5082145;28;20463;-65
2022/06/22 06:58:53;;;;;;;2.80;1.30;;;19.60;99.90;;;;;;5078263;28;20812;-65
2022/06/22 07:01:27;;;;;;;1.03;1.00;;;19.50;99.90;;;;;;5078620;28;20450;-65
2022/06/22 07:04:02;;;;;;;1.83;1.13;;;19.50;99.90;;;;;;5079397;28;20438;-66
2022/06/22 07:06:33;;;;;;;0.80;0.80;;;19.40;99.90;;;;;;5082213;28;20463;-64
2022/06/22 07:09:12;;;;;;;1.10;1.00;;;19.40;99.90;;;;;;5082945;28;20430;-64
2022/06/22 07:11:48;;;;;;;3.27;1.10;;;19.40;99.90;;;;;;5079771;28;20455;-64
2022/06/22 07:14:25;;;;;;;1.20;1.10;;;19.40;99.90;;;;;;5081437;28;20459;-64
2022/06/22 07:16:59;;;;;;;2.17;1.27;;;19.30;99.90;;;;;;5082306;28;20437;-64
2022/06/22 07:19:37;;;;;;;1.77;1.27;;;19.30;99.90;;;;;;5082875;28;20464;-65
2022/06/22 07:22:14;;;;;;;1.60;1.10;;;19.20;99.90;;;;;;5082353;28;20462;-64
2022/06/22 07:24:50;;;;;;;1.20;1.10;;;19.10;99.90;;;;;;5080232;28;20444;-65
2022/06/22 07:27:28;;;;;;;2.30;1.30;;;19.10;99.90;;;;;;5081381;28;20478;-64
2022/06/22 07:30:07;;;;;;;2.17;1.70;;;19.10;99.90;;;;;;5082584;28;20455;-63
2022/06/22 07:32:44;;;;;;;2.00;1.60;;;19.00;99.90;;;;;;5081925;28;20817;-64
2022/06/22 07:35:24;;;;;;;1.70;1.17;;;18.90;99.90;;;;;;5078247;28;20462;-64
2022/06/22 07:38:01;;;;;;;2.00;1.80;;;18.90;99.90;;;;;;5077704;28;20467;-64
2022/06/22 07:40:33;;;;;;;2.27;1.10;;;18.80;99.90;;;;;;5080952;28;20549;-65
2022/06/22 07:43:05;;;;;;;2.93;1.17;;;18.80;99.90;;;;;;5081811;28;20487;-65
2022/06/22 07:45:41;;;;;;;6.50;1.53;;;18.80;99.90;;;;;;5082285;28;20467;-64
2022/06/22 07:48:19;;;;;;;1.40;1.30;;;18.70;99.90;;;;;;5082038;28;20509;-65
2022/06/22 07:50:52;;;;;;;1.77;1.50;;;18.70;99.90;;;;;;5081992;28;20446;-65
2022/06/22 07:53:31;;;;;;;2.77;1.40;;;18.70;99.90;;;;;;5081952;28;20433;-65
2022/06/22 07:56:10;;;;;;;1.80;1.50;;;18.60;99.90;;;;;;5079315;28;20442;-66
2022/06/22 07:58:47;;;;;;;1.60;1.17;;;18.50;99.90;;;;;;5082145;28;20438;-65
2022/06/22 08:01:23;;;;;;;1.40;1.30;;;18.50;99.90;;;;;;5081366;28;21005;-66
2022/06/22 08:03:59;;;;;;;2.10;1.50;;;18.40;99.90;;;;;;5081938;28;20545;-66
2022/06/22 08:06:35;;;;;;;1.80;1.60;;;18.40;99.90;;;;;;5078509;28;20434;-65
2022/06/22 08:09:13;;;;;;;1.30;1.20;;;18.30;99.90;;;;;;5080532;28;20437;-65
2022/06/22 08:11:49;;;;;;;2.03;1.60;;;18.30;99.90;;;;;;5080257;28;20463;-66
2022/06/22 08:14:25;;;;;;;1.97;1.87;;;18.20;99.90;;;;;;5081873;28;20942;-66
2022/06/22 08:17:00;;;;;;;2.10;1.57;;;18.20;99.90;;;;;;5077387;28;20463;-65
2022/06/22 08:19:31;;;;;;;2.63;1.70;;;18.10;99.90;;;;;;5076599;28;20425;-65
2022/06/22 08:25:05;;;;;;;2.30;1.30;;;18.00;99.90;;;;;;5077623;28;20900;-65
2022/06/22 08:27:37;;;;;;;1.60;1.50;;;18.00;99.90;;;;;;5078942;28;20459;-65
2022/06/22 08:30:10;;;;;;;1.73;1.33;;;18.00;99.90;;;;;;5081462;28;20438;-65
2022/06/22 08:32:48;;;;;;;1.80;1.53;;;17.90;99.90;;;;;;5081484;28;20448;-65
2022/06/22 08:35:26;;;;;;;1.80;1.70;;;17.90;99.90;;;;;;5080608;28;20470;-65
2022/06/22 08:38:03;;;;;;;2.20;1.40;;;17.80;99.90;;;;;;5068594;28;20443;-65
2022/06/22 08:40:42;;;;;;;1.90;1.73;;;17.70;99.90;;;;;;5081771;28;20436;-65
2022/06/22 08:43:27;;;;;;;2.97;1.80;;;17.60;99.90;;;;;;5081974;28;20479;-64
2022/06/22 08:46:29;;;;;;;2.97;1.67;;;17.60;99.90;;;;;;5081224;28;20459;-64
2022/06/22 08:49:28;;;;;;;1.70;1.60;;;17.60;99.90;;;;;;5078098;28;20520;-63
2022/06/22 08:52:31;;;;;;;1.40;1.30;;;17.60;99.90;;;;;;5081109;28;20455;-64
2022/06/22 08:55:39;;;;;;;1.53;1.43;;;17.50;99.90;;;;;;5080083;28;20466;-66
2022/06/22 08:58:25;;;;;;;2.03;1.83;;;17.40;99.90;;;;;;5071163;28;20536;-64
2022/06/22 09:01:09;;;;;;;1.40;1.30;;;17.30;99.90;;;;;;5080676;28;20475;-63
2022/06/22 09:04:21;;;;;;;2.10;1.77;;;17.20;99.90;;;;;;5080321;28;20462;-64
2022/06/22 09:07:09;;;;;;;2.40;1.50;;;17.30;99.90;;;;;;5079611;28;20463;-64
2022/06/22 09:10:13;;;;;;;2.40;1.50;;;17.20;99.90;;;;;;5077070;28;20493;-64
2022/06/22 09:12:57;;;;;;;1.73;1.17;;;17.10;99.90;;;;;;5079287;28;20438;-64
2022/06/22 09:15:48;;;;;;;1.50;1.40;;;17.20;99.90;;;;;;5079881;28;20438;-64
2022/06/22 09:18:36;;;;;;;1.53;1.20;;;17.20;99.90;;;;;;5081214;28;20459;-64
2022/06/22 09:21:24;;;;;;;3.70;1.97;;;17.20;99.90;;;;;;5080366;28;20475;-64
2022/06/22 09:24:07;;;;;;;2.70;1.20;;;17.10;99.90;;;;;;5080285;28;20477;-64
2022/06/22 09:26:51;;;;;;;1.60;1.50;;;17.00;99.90;;;;;;5078046;28;20496;-65
2022/06/22 09:29:35;;;;;;;1.37;1.13;;;17.00;99.90;;;;;;5080762;28;20477;-65
2022/06/22 09:32:36;;;;;;;2.57;1.83;;;17.00;99.90;;;;;;5080633;28;20478;-65
2022/06/22 09:35:50;;;;;;;1.70;1.60;;;17.10;99.90;;;;;;5080275;28;20460;-64
2022/06/22 09:42:26;;;;;;;1.43;1.33;;;17.10;99.90;;;;;;4956477;28;20457;-64
2022/06/22 09:45:25;;;;;;;3.70;1.57;;;17.10;99.90;;;;;;4952180;29;20488;-64
2022/06/22 09:48:17;;;;;;;2.33;2.10;;;17.00;99.90;;;;;;4955564;29;20468;-65
2022/06/22 09:51:12;;;;;;;2.33;1.83;;;16.90;99.90;;;;;;4962688;29;20808;-65
2022/06/22 09:57:22;;;;;;;2.93;2.20;;;16.90;99.90;;;;;;4960048;29;20604;-65
2022/06/22 10:00:08;;;;;;;2.03;1.50;;;16.90;99.90;;;;;;4954909;28;20465;-63
2022/06/22 10:06:36;;;;;;;1.97;1.77;;;16.70;99.90;;;;;;4962314;29;20480;-63
2022/06/22 10:09:52;;;;;;;2.20;2.00;;;16.70;99.90;;;;;;4964001;29;20467;-65
2022/06/22 10:12:50;;;;;;;2.67;2.00;;;16.60;99.90;;;;;;4958411;29;20496;-65
2022/06/22 10:15:37;;;;;;;1.70;1.60;;;16.60;99.90;;;;;;4955916;29;20921;-65
2022/06/22 10:18:30;;;;;;;2.40;1.80;;;16.60;99.90;;;;;;4980078;28;20494;-65
2022/06/22 10:21:11;;;;;;;1.87;1.37;;;16.60;99.90;;;;;;5001536;28;20953;-65
2022/06/22 10:24:36;;;;;;;3.10;1.90;;;16.50;99.90;;;;;;5003207;28;20486;-64
2022/06/22 10:27:41;;;;;;;1.50;1.37;;;16.50;99.90;;;;;;4999428;28;20530;-65
2022/06/22 10:30:22;;;;;;;1.83;1.73;;;16.40;99.90;;;;;;4998577;28;20444;-64
2022/06/22 10:33:24;;;;;;;2.60;2.13;;;16.40;99.90;;;;;;5001374;28;20567;-64
2022/06/22 10:36:48;;;;;;;1.97;1.73;;;16.40;99.90;;;;;;5000248;28;20459;-65
2022/06/22 10:39:48;;;;;;;1.77;1.30;;;16.30;99.90;;;;;;4946483;29;20451;-64
2022/06/22 10:45:43;;;;;;;2.50;1.87;;;16.20;99.90;;;;;;4940527;29;20459;-63
2022/06/22 10:48:46;;;;;;;3.27;2.67;;;16.10;99.90;;;;;;4943460;29;21006;-64
2022/06/22 10:51:33;;;;;;;3.30;2.10;;;16.10;99.90;;;;;;4975916;28;20468;-64
2022/06/22 10:55:05;;;;;;;2.03;1.83;;;16.10;99.90;;;;;;5020231;28;20457;-63
2022/06/22 10:57:59;;;;;;;2.60;2.17;;;16.10;99.90;;;;;;5004633;28;20544;-63
2022/06/22 11:00:48;;;;;;;2.53;1.93;;;15.90;99.90;;;;;;5021470;28;20425;-64
2022/06/22 11:04:14;;;;;;;2.60;1.73;;;15.90;99.90;;;;;;5010847;28;20482;-63
2022/06/22 11:07:16;;;;;;;2.47;1.87;;;15.80;99.90;;;;;;4962106;29;20450;-64
2022/06/22 11:10:02;;;;;;;2.47;2.17;;;15.80;99.90;;;;;;4971382;28;20421;-64
2022/06/22 11:12:53;;;;;;;1.87;1.70;;;15.80;99.90;;;;;;5001680;28;20458;-64
2022/06/22 11:15:47;;;;;;;2.10;1.90;;;15.80;99.90;;;;;;5005337;28;20736;-63
2022/06/22 11:18:44;;;;;;;1.83;1.73;;;15.80;99.90;;;;;;5001675;28;20462;-64
2022/06/22 11:21:32;;;;;;;3.53;2.43;;;15.70;99.90;;;;;;4994647;28;20466;-64
2022/06/22 11:24:38;;;;;;;2.77;2.20;;;15.70;99.90;;;;;;4982315;28;20458;-64
2022/06/22 11:33:39;;;;;;;2.30;1.90;;;15.50;99.90;;;;;;4966655;28;20458;-64
2022/06/22 11:36:41;;;;;;;2.63;2.20;;;15.50;99.90;;;;;;4979472;28;20463;-64
2022/06/22 11:43:51;;;;;;;2.67;2.00;;;15.30;99.90;;;;;;5043645;28;20559;-64
2022/06/22 11:46:26;;;;;;;3.17;2.43;;;15.40;99.90;;;;;;5042562;28;20515;-65
2022/06/22 11:49:29;;;;;;;3.53;2.40;;;15.30;99.90;;;;;;5043047;28;20942;-64
2022/06/22 11:52:44;;;;;;;3.00;2.23;;;15.30;99.90;;;;;;4951853;29;20464;-63
2022/06/22 11:55:33;;;;;;;2.80;2.47;;;15.30;99.90;;;;;;4959564;29;20545;-63
2022/06/22 11:58:34;;;;;;;3.27;1.87;;;15.30;99.90;;;;;;4962104;29;20611;-63
2022/06/22 12:01:31;;;;;;;2.43;1.63;;;15.20;99.90;;;;;;4958368;29;20469;-63
2022/06/22 12:08:01;;;;;;;2.70;2.50;;;15.20;99.90;;;;;;4951534;29;20472;-64
2022/06/22 12:10:51;;;;;;;2.70;1.93;;;15.20;99.90;;;;;;4960106;29;20460;-64
2022/06/22 12:15:04;;;;;;;3.67;2.20;;;15.10;99.90;;;;;;4962212;29;20434;-65
2022/06/22 12:16:44;;;;;;;2.40;2.10;;;15.00;99.90;;;;;;4960871;29;20473;-63
2022/06/22 12:19:24;;;;;;;3.10;2.60;;;15.00;99.90;;;;;;4960150;29;20439;-63
2022/06/22 12:22:14;;;;;;;2.30;2.10;;;15.10;99.90;;;;;;4982101;28;20491;-63
2022/06/22 12:25:03;;;;;;;3.07;2.23;;;15.00;99.90;;;;;;4988729;28;20493;-63
2022/06/22 12:27:39;;;;;;;2.40;2.10;;;14.90;99.90;;;;;;4999634;28;20463;-64
2022/06/22 12:30:36;;;;;;;2.90;2.10;;;14.90;99.90;;;;;;5039579;28;20532;-64
2022/06/22 12:33:13;;;;;;;2.77;2.57;;;14.90;99.90;;;;;;5040232;28;20476;-63
2022/06/22 12:35:53;;;;;;;2.57;2.40;;;14.90;99.90;;;;;;5041009;28;20481;-65
2022/06/22 12:38:27;;;;;;;2.13;1.93;;;14.90;99.90;;;;;;5025937;28;20460;-64
2022/06/22 12:41:25;;;;;;;2.63;2.43;;;14.90;99.90;;;;;;5041503;28;20931;-64
2022/06/22 12:44:35;;;;;;;3.23;2.37;;;14.90;99.90;;;;;;5038403;28;20436;-64
2022/06/22 12:47:34;;;;;;;2.40;1.70;;;14.80;99.90;;;;;;5039593;28;20460;-64
2022/06/22 12:50:45;;;;;;;2.20;2.03;;;14.80;99.90;;;;;;5041482;28;20461;-64
2022/06/22 12:53:48;;;;;;;2.10;1.90;;;14.90;99.90;;;;;;5032665;28;20462;-63
2022/06/22 12:56:31;;;;;;;2.00;1.80;;;14.90;99.90;;;;;;5040155;28;20437;-63
2022/06/22 12:59:08;;;;;;;2.97;2.53;;;14.90;99.90;;;;;;5042274;28;20437;-63
2022/06/22 13:01:46;;;;;;;3.10;2.30;;;14.90;99.90;;;;;;5041072;28;20455;-65
2022/06/22 13:04:46;;;;;;;2.57;2.37;;;14.90;99.90;;;;;;5055911;28;21010;-64
2022/06/22 13:07:20;;;;;;;3.73;2.70;;;15.00;99.90;;;;;;5040778;28;20449;-63
2022/06/22 13:09:51;;;;;;;2.00;1.80;;;14.90;99.90;;;;;;5026312;28;20456;-63
2022/06/22 13:12:30;;;;;;;2.70;2.10;;;15.00;99.90;;;;;;5041757;28;20532;-63
2022/06/22 13:15:05;;;;;;;2.60;2.40;;;15.00;99.90;;;;;;5041387;28;20416;-63
2022/06/22 13:17:45;;;;;;;2.57;2.03;;;15.00;99.90;;;;;;5045555;28;20451;-63
2022/06/22 13:20:35;;;;;;;2.57;2.37;;;15.00;99.90;;;;;;5046052;28;20477;-64
2022/06/22 13:27:05;;;;;;;2.30;2.10;;;15.10;99.90;;;;;;5042977;28;20503;-64
2022/06/22 13:29:51;;;;;;;2.63;1.67;;;15.10;99.90;;;;;;5035105;28;20463;-64
2022/06/22 13:32:33;;;;;;;2.07;1.97;;;15.10;99.90;;;;;;5045637;28;20540;-65
2022/06/22 13:35:26;;;;;;;3.83;3.23;;;15.20;99.90;;;;;;5020035;28;20982;-64
2022/06/22 13:38:28;;;;;;;1.97;1.80;;;15.30;99.90;;;;;;5042576;28;20449;-64
2022/06/22 13:41:15;;;;;;;2.47;2.27;;;15.30;99.90;;;;;;5041056;28;20457;-64
2022/06/22 13:44:16;;;;;;;2.37;2.17;;;15.30;99.90;;;;;;5043401;28;20457;-66
2022/06/22 13:47:05;;;;;;;3.10;2.43;;;15.40;99.90;;;;;;5035892;28;20553;-65
2022/06/22 13:49:51;;;;;;;3.43;2.47;;;15.50;99.90;;;;;;5044401;28;20468;-65
2022/06/22 13:52:38;;;;;;;2.87;2.67;;;15.60;99.90;;;;;;5039999;28;20451;-65
2022/06/22 13:55:45;;;;;;;2.00;1.80;;;15.70;99.90;;;;;;5044595;28;20453;-65
2022/06/22 13:58:24;;;;;;;2.80;1.80;;;15.80;99.90;;;;;;4983285;28;20459;-65
2022/06/22 14:01:00;;;;;;;3.90;2.83;;;15.90;99.90;;;;;;4982765;28;20567;-66
2022/06/22 14:03:40;;;;;;;3.07;2.20;;;16.00;99.90;;;;;;4983778;28;20527;-65
2022/06/22 14:06:18;;;;;;;2.90;2.27;;;16.10;99.90;;;;;;4985933;28;20483;-65
2022/06/22 14:09:12;;;;;;;3.40;2.50;;;16.20;99.90;;;;;;4981910;28;20464;-65
2022/06/22 14:11:54;;;;;;;4.50;2.63;;;16.30;99.90;;;;;;4976965;28;20553;-65
2022/06/22 14:14:30;;;;;;;2.30;2.10;;;16.40;99.90;;;;;;4980915;28;20468;-65
2022/06/22 14:17:13;;;;;;;3.60;2.40;;;17.10;99.90;;;;;;4982664;28;20455;-64
2022/06/22 14:19:48;;;;;;;2.37;1.73;;;18.80;99.90;;;;;;4979038;28;20469;-65
2022/06/22 14:22:23;;;;;;;1.43;1.33;;;21.00;99.90;;;;;;4979810;28;20480;-65
2022/06/22 14:25:01;;;;;;;2.70;2.37;;;22.30;99.90;;;;;;4979288;28;20494;-66
2022/06/22 14:27:47;;;;;;;2.50;2.00;;;23.70;99.90;;;;;;4979846;28;20892;-65
2022/06/22 14:30:25;;;;;;;2.40;1.80;;;25.20;99.90;;;;;;4980120;28;20469;-65
2022/06/22 14:33:35;;;;;;;2.30;2.07;;;26.60;98.70;;;;;;4984489;28;20476;-65
2022/06/22 14:36:20;;;;;;;2.07;1.87;;;27.70;95.80;;;;;;5018795;28;20483;-65
2022/06/22 14:39:04;;;;;;;2.17;1.97;;;28.40;93.70;;;;;;5018525;28;20464;-65
2022/06/22 14:41:39;;;;;;;2.47;2.20;;;28.70;91.70;;;;;;5019465;28;20475;-65
2022/06/22 14:44:38;;;;;;;2.70;2.20;;;28.30;92.90;;;;;;5021922;28;20659;-66
2022/06/22 14:47:21;;;;;;;1.87;1.77;;;28.70;90.60;;;;;;5019811;28;20502;-64
2022/06/22 14:50:14;;;;;;;1.87;1.77;;;28.20;91.00;;;;;;5020422;28;20525;-65
2022/06/22 14:52:52;;;;;;;2.67;2.23;;;28.40;90.90;;;;;;5021023;28;20511;-65